createdAt,value
2018-07-17T00:01:54.583Z,1006.2
2018-07-17T00:12:08.599Z,1006.2
2018-07-17T00:22:24.372Z,1006.2
2018-07-17T00:32:39.948Z,1006.2
2018-07-17T00:42:55.255Z,1006.1
2018-07-17T00:53:10.966Z,1006.1
2018-07-17T01:03:26.105Z,1006.1
2018-07-17T01:13:40.484Z,1005.9
2018-07-17T01:23:55.700Z,1005.9
2018-07-17T01:34:09.475Z,1005.9
2018-07-17T01:44:24.750Z,1005.7
2018-07-17T01:54:39.017Z,1005.7
2018-07-17T02:04:53.866Z,1005.7
2018-07-17T02:15:07.481Z,1005.7
2018-07-17T02:25:22.953Z,1005.7
2018-07-17T02:35:38.210Z,1005.7
2018-07-17T02:45:53.468Z,1005.8
2018-07-17T02:56:09.114Z,1005.8
2018-07-17T03:06:23.525Z,1005.7
2018-07-17T03:16:38.284Z,1005.7
2018-07-17T03:26:52.229Z,1005.7
2018-07-17T03:37:07.291Z,1005.8
2018-07-17T03:47:21.993Z,1005.8
2018-07-17T03:57:37.039Z,1005.9
2018-07-17T04:07:51.169Z,1005.8
2018-07-17T04:18:06.743Z,1005.9
2018-07-17T04:28:21.353Z,1005.9
2018-07-17T04:38:36.404Z,1006
2018-07-17T04:48:51.581Z,1006
2018-07-17T04:59:05.977Z,1006.1
2018-07-17T05:09:20.313Z,1006.2
2018-07-17T05:19:34.816Z,1006.1
2018-07-17T05:29:49.360Z,1006.1
2018-07-17T05:40:03.237Z,1006.2
2018-07-17T05:50:17.150Z,1006.3
2018-07-17T06:00:32.444Z,1006.3
2018-07-17T06:10:46.308Z,1006.5
2018-07-17T06:21:00.505Z,1006.6
2018-07-17T06:31:14.465Z,1006.7
2018-07-17T06:41:29.305Z,1006.6
2018-07-17T06:51:44.729Z,1006.8
2018-07-17T07:01:58.985Z,1006.7
2018-07-17T07:12:13.993Z,1006.7
2018-07-17T07:22:30.080Z,1006.8
2018-07-17T07:32:45.543Z,1006.9
2018-07-17T07:43:00.106Z,1007
2018-07-17T07:53:15.775Z,1007.1
2018-07-17T08:03:29.997Z,1007
2018-07-17T08:13:45.214Z,1007
2018-07-17T08:24:00.167Z,1007.1
2018-07-17T08:34:14.535Z,1007.1
2018-07-17T08:44:29.052Z,1007.1
2018-07-17T08:54:43.997Z,1007.2
2018-07-17T09:04:59.090Z,1007.2
2018-07-17T09:15:13.762Z,1007.4
2018-07-17T09:25:29.184Z,1007.4
2018-07-17T09:35:44.453Z,1007.5
2018-07-17T09:46:00.063Z,1007.4
2018-07-17T09:56:15.100Z,1007.5
2018-07-17T10:06:30.240Z,1007.4
2018-07-17T10:16:44.667Z,1007.4
2018-07-17T10:26:58.990Z,1007.5
2018-07-17T10:37:14.913Z,1007.6
2018-07-17T10:47:30.343Z,1007.8
2018-07-17T10:57:46.642Z,1007.6
2018-07-17T11:08:00.626Z,1007.5
2018-07-17T11:18:15.646Z,1007.5
2018-07-17T11:28:29.564Z,1007.4
2018-07-17T11:38:44.059Z,1007.3
2018-07-17T11:48:58.750Z,1007.4
2018-07-17T11:59:14.397Z,1007.4
2018-07-17T12:09:29.487Z,1007.7
2018-07-17T12:19:45.173Z,1007.2
2018-07-17T12:29:59.256Z,1007.5
2018-07-17T12:40:15.268Z,1007.6
2018-07-17T12:50:30.235Z,1007.5
2018-07-17T13:00:45.422Z,1007.6
2018-07-17T13:11:00.123Z,1007.8
2018-07-17T13:21:16.084Z,1007.7
2018-07-17T13:31:31.589Z,1008
2018-07-17T13:41:46.170Z,1008.3
2018-07-17T13:52:00.333Z,1008.3
2018-07-17T14:02:16.402Z,1008
2018-07-17T14:12:31.285Z,1007.2
2018-07-17T14:22:45.471Z,1006.9
2018-07-17T14:32:59.722Z,1006.9
2018-07-17T14:43:14.025Z,1006.8
2018-07-17T14:53:29.957Z,1006.7
2018-07-17T15:03:45.373Z,1006.9
2018-07-17T15:14:00.830Z,1006.8
2018-07-17T15:24:16.060Z,1006.8
2018-07-17T15:34:30.189Z,1006.9
2018-07-17T15:44:45.975Z,1007
2018-07-17T15:55:01.430Z,1007
2018-07-17T16:05:16.262Z,1007
2018-07-17T16:15:30.836Z,1007
2018-07-17T16:25:45.660Z,1007
2018-07-17T16:36:00.709Z,1006.9
2018-07-17T16:46:14.927Z,1006.9
2018-07-17T16:56:29.717Z,1006.9
2018-07-17T17:06:44.027Z,1006.8
2018-07-17T17:16:59.856Z,1006.9
2018-07-17T17:27:14.410Z,1006.8
2018-07-17T17:37:30.012Z,1006.9
2018-07-17T17:47:45.767Z,1007.1
2018-07-17T17:58:00.674Z,1007.3
2018-07-17T18:08:14.641Z,1007.3
2018-07-17T18:18:30.237Z,1007.5
2018-07-17T18:28:45.006Z,1007.6
2018-07-17T18:39:00.693Z,1007.8
2018-07-17T18:49:15.715Z,1007.8
2018-07-17T18:59:31.525Z,1008.1
2018-07-17T19:09:45.317Z,1008.2
2018-07-17T19:19:59.219Z,1008.3
2018-07-17T19:30:15.168Z,1008.5
2018-07-17T19:40:30.313Z,1008.6
2018-07-17T19:50:45.501Z,1008.7
2018-07-17T20:01:00.338Z,1008.9
2018-07-17T20:11:16.114Z,1009
2018-07-17T20:21:31.557Z,1009.1
2018-07-17T20:31:45.992Z,1009.2
2018-07-17T20:42:01.337Z,1009.3
2018-07-17T20:52:15.781Z,1009.4
2018-07-17T21:02:29.842Z,1009.5
2018-07-17T21:12:45.426Z,1009.6
2018-07-17T21:23:00.000Z,1009.8
2018-07-17T21:33:14.891Z,1009.9
2018-07-17T21:43:29.951Z,1010.1
2018-07-17T21:53:45.035Z,1010.2
2018-07-17T22:03:58.765Z,1010.2
2018-07-17T22:14:12.835Z,1010.2
2018-07-17T22:24:26.742Z,1010.3
2018-07-17T22:34:41.859Z,1010.4
2018-07-17T22:44:56.622Z,1010.6
2018-07-17T22:55:10.545Z,1010.5
2018-07-17T23:05:25.588Z,1010.6
2018-07-17T23:15:40.827Z,1010.7
2018-07-17T23:25:56.001Z,1010.6
2018-07-17T23:36:11.017Z,1010.6
2018-07-17T23:46:26.257Z,1010.6
2018-07-17T23:56:40.285Z,1010.7
